createdAt,value
2018-09-10T00:00:16.608Z,0
2018-09-10T00:01:37.453Z,0
2018-09-10T00:02:58.410Z,0
2018-09-10T00:03:58.674Z,0
2018-09-10T00:04:58.906Z,0
2018-09-10T00:05:58.746Z,0
2018-09-10T00:06:58.978Z,0
2018-09-10T00:07:59.100Z,0
2018-09-10T00:08:59.020Z,0
2018-09-10T00:09:59.237Z,0
2018-09-10T00:10:58.516Z,0
2018-09-10T00:11:58.505Z,0
2018-09-10T00:12:58.561Z,0
2018-09-10T00:13:58.863Z,0
2018-09-10T00:14:59.037Z,0
2018-09-10T00:15:58.881Z,0
2018-09-10T00:16:59.024Z,0
2018-09-10T00:17:59.218Z,0
2018-09-10T00:18:58.284Z,0
2018-09-10T00:19:58.693Z,0
2018-09-10T00:20:58.771Z,0
2018-09-10T00:21:59.035Z,0
2018-09-10T00:22:59.184Z,0
2018-09-10T00:24:19.356Z,0
2018-09-10T00:25:19.380Z,0
2018-09-10T00:26:19.474Z,0
2018-09-10T00:27:19.554Z,0
2018-09-10T00:28:40.696Z,0
2018-09-10T00:29:40.810Z,0
2018-09-10T00:30:40.808Z,0
2018-09-10T00:31:40.834Z,0
2018-09-10T00:32:41.135Z,0
2018-09-10T00:33:41.082Z,0
2018-09-10T00:34:41.346Z,0
2018-09-10T00:35:41.461Z,0
2018-09-10T00:36:41.410Z,0
2018-09-10T00:38:02.215Z,0
2018-09-10T00:39:04.469Z,0
2018-09-10T00:40:02.626Z,0
2018-09-10T00:41:23.604Z,0
2018-09-10T00:42:23.625Z,0
2018-09-10T00:43:23.889Z,0
2018-09-10T00:44:23.966Z,0
2018-09-10T00:45:24.233Z,0
2018-09-10T00:46:24.369Z,0
2018-09-10T00:47:24.457Z,0
2018-09-10T00:48:24.513Z,0
2018-09-10T00:49:24.628Z,0
2018-09-10T00:50:23.729Z,0
2018-09-10T00:51:44.536Z,0
2018-09-10T00:53:05.351Z,0
2018-09-10T00:54:05.406Z,0
2018-09-10T00:55:05.415Z,0
2018-09-10T00:56:05.368Z,0
2018-09-10T00:57:05.503Z,0
2018-09-10T00:58:05.354Z,0
2018-09-10T00:59:05.565Z,0
2018-09-10T01:00:05.524Z,0
2018-09-10T01:01:05.532Z,0
2018-09-10T01:02:05.719Z,0
2018-09-10T01:03:05.914Z,0
2018-09-10T01:04:06.337Z,0
2018-09-10T01:05:26.026Z,0
2018-09-10T01:06:27.187Z,0
2018-09-10T01:07:26.295Z,0
2018-09-10T01:08:26.343Z,0
2018-09-10T01:09:47.323Z,0
2018-09-10T01:10:47.230Z,0
2018-09-10T01:11:47.436Z,0
2018-09-10T01:12:47.597Z,0
2018-09-10T01:13:47.670Z,0
2018-09-10T01:14:47.956Z,0
2018-09-10T01:15:47.935Z,0
2018-09-10T01:16:48.039Z,0
2018-09-10T01:17:48.147Z,0
2018-09-10T01:18:47.323Z,0
2018-09-10T01:20:28.958Z,0
2018-09-10T01:21:28.993Z,0
2018-09-10T01:23:11.492Z,0
2018-09-10T01:24:11.589Z,0
2018-09-10T01:25:11.528Z,0
2018-09-10T01:26:11.493Z,0
2018-09-10T01:27:11.773Z,0
2018-09-10T01:28:12.063Z,0
2018-09-10T01:29:12.049Z,0
2018-09-10T01:30:12.200Z,0
2018-09-10T01:31:12.141Z,0
2018-09-10T01:32:12.464Z,0
2018-09-10T01:33:32.360Z,0
2018-09-10T01:34:53.390Z,0
2018-09-10T01:35:53.603Z,0
2018-09-10T01:36:53.467Z,0
2018-09-10T01:37:54.671Z,0
2018-09-10T01:38:53.863Z,0
2018-09-10T01:39:53.926Z,0
2018-09-10T01:40:54.118Z,0
2018-09-10T01:41:54.325Z,0
2018-09-10T01:42:53.691Z,0
2018-09-10T01:43:53.752Z,0
2018-09-10T01:44:54.153Z,0
2018-09-10T01:45:53.277Z,0
2018-09-10T01:46:54.334Z,0
2018-09-10T01:48:35.577Z,0
2018-09-10T01:49:35.579Z,0
2018-09-10T01:50:35.635Z,0
2018-09-10T01:51:35.949Z,0
2018-09-10T01:52:36.249Z,0
2018-09-10T01:53:36.304Z,0
2018-09-10T01:54:56.214Z,0
2018-09-10T01:55:56.497Z,0
2018-09-10T01:57:17.654Z,0
2018-09-10T01:58:17.950Z,0
2018-09-10T01:59:18.151Z,0
2018-09-10T02:00:18.337Z,0
2018-09-10T02:01:18.432Z,0
2018-09-10T02:02:17.530Z,0
2018-09-10T02:03:17.703Z,0
2018-09-10T02:04:17.860Z,0
2018-09-10T02:05:17.804Z,0
2018-09-10T02:06:18.096Z,0
2018-09-10T02:07:18.392Z,0
2018-09-10T02:08:18.478Z,0
2018-09-10T02:09:18.393Z,0
2018-09-10T02:10:39.936Z,0
2018-09-10T02:11:40.311Z,0
2018-09-10T02:12:40.480Z,0
2018-09-10T02:13:40.371Z,0
2018-09-10T02:14:41.461Z,0
2018-09-10T02:16:01.649Z,0
2018-09-10T02:17:01.722Z,0
2018-09-10T02:18:02.082Z,0
2018-09-10T02:19:02.129Z,0
2018-09-10T02:20:02.226Z,0
2018-09-10T02:21:02.424Z,0
2018-09-10T02:22:01.698Z,0
2018-09-10T02:23:01.768Z,0
2018-09-10T02:24:01.807Z,0
2018-09-10T02:25:01.839Z,0
2018-09-10T02:26:01.879Z,0
2018-09-10T02:27:02.093Z,0
2018-09-10T02:28:02.233Z,0
2018-09-10T02:29:02.295Z,0
2018-09-10T02:30:02.390Z,0
2018-09-10T02:31:02.592Z,0
2018-09-10T02:32:01.989Z,0
2018-09-10T02:33:23.883Z,0
2018-09-10T02:34:24.201Z,0
2018-09-10T02:35:24.652Z,0
2018-09-10T02:36:25.020Z,0
2018-09-10T02:37:45.067Z,0
2018-09-10T02:38:46.195Z,0
2018-09-10T02:39:45.230Z,0
2018-09-10T02:40:45.499Z,0
2018-09-10T02:41:45.734Z,0
2018-09-10T02:42:45.757Z,0
2018-09-10T02:43:45.953Z,0
2018-09-10T02:45:07.136Z,0
2018-09-10T02:46:07.146Z,0
2018-09-10T02:47:07.069Z,0
2018-09-10T02:48:06.870Z,0
2018-09-10T02:49:28.273Z,0
2018-09-10T02:50:28.631Z,0
2018-09-10T02:51:28.513Z,0
2018-09-10T02:52:28.573Z,0
2018-09-10T02:53:28.747Z,0
2018-09-10T02:54:28.062Z,0
2018-09-10T02:55:27.802Z,0
2018-09-10T02:56:28.804Z,0
2018-09-10T02:57:28.801Z,0
2018-09-10T02:58:48.879Z,0
2018-09-10T02:59:48.911Z,0
2018-09-10T03:00:49.075Z,0
2018-09-10T03:01:49.016Z,0
2018-09-10T03:02:49.223Z,0
2018-09-10T03:03:49.118Z,0
2018-09-10T03:04:49.389Z,0
2018-09-10T03:05:49.365Z,0
2018-09-10T03:06:49.294Z,0
2018-09-10T03:08:54.053Z,0
2018-09-10T03:09:54.043Z,0
2018-09-10T03:10:54.177Z,0
2018-09-10T03:11:54.364Z,0
2018-09-10T03:13:15.346Z,0
2018-09-10T03:14:36.367Z,0
2018-09-10T03:15:36.730Z,0
2018-09-10T03:16:36.877Z,0
2018-09-10T03:17:36.739Z,0
2018-09-10T03:19:18.574Z,0
2018-09-10T03:20:18.716Z,0
2018-09-10T03:21:39.639Z,0
2018-09-10T03:22:39.652Z,0
2018-09-10T03:23:39.885Z,0
2018-09-10T03:24:39.848Z,0
2018-09-10T03:26:00.521Z,0
2018-09-10T03:27:01.449Z,0
2018-09-10T03:28:01.471Z,0
2018-09-10T03:29:01.556Z,0
2018-09-10T03:30:00.804Z,0
2018-09-10T03:31:00.971Z,0
2018-09-10T03:32:01.176Z,0
2018-09-10T03:33:01.167Z,0
2018-09-10T03:34:01.321Z,0
2018-09-10T03:35:22.304Z,0
2018-09-10T03:36:23.144Z,0
2018-09-10T03:37:23.319Z,0
2018-09-10T03:38:35.057Z,0
2018-09-10T03:39:29.987Z,0
2018-09-10T03:40:22.855Z,0
2018-09-10T03:41:43.974Z,0
2018-09-10T03:42:43.931Z,0
2018-09-10T03:44:25.444Z,0
2018-09-10T03:45:25.402Z,0
2018-09-10T03:46:25.442Z,0
2018-09-10T03:47:25.440Z,0
2018-09-10T03:48:25.669Z,0
2018-09-10T03:49:25.783Z,0
2018-09-10T03:50:25.814Z,0
2018-09-10T03:51:25.857Z,0
2018-09-10T03:52:25.981Z,0
2018-09-10T03:54:08.046Z,0
2018-09-10T03:55:08.258Z,0
2018-09-10T03:56:08.678Z,0
2018-09-10T03:57:29.787Z,0
2018-09-10T03:58:29.860Z,0
2018-09-10T03:59:30.092Z,0
2018-09-10T04:00:30.229Z,0
2018-09-10T04:01:30.196Z,0
2018-09-10T04:02:30.319Z,0
2018-09-10T04:03:30.606Z,0
2018-09-10T04:04:29.865Z,0
2018-09-10T04:05:30.159Z,0
2018-09-10T04:06:30.208Z,0
2018-09-10T04:07:30.352Z,0
2018-09-10T04:08:30.436Z,0
2018-09-10T04:09:29.577Z,0
2018-09-10T04:10:29.686Z,0
2018-09-10T04:11:29.995Z,0
2018-09-10T04:12:29.864Z,0
2018-09-10T04:13:29.718Z,0
2018-09-10T04:14:30.180Z,0
2018-09-10T04:15:30.255Z,0
2018-09-10T04:16:30.317Z,0
2018-09-10T04:17:29.573Z,0
2018-09-10T04:18:29.805Z,0
2018-09-10T04:19:30.139Z,0
2018-09-10T04:20:30.372Z,0
2018-09-10T04:21:29.710Z,0
2018-09-10T04:22:29.888Z,0
2018-09-10T04:23:30.021Z,0
2018-09-10T04:24:30.320Z,0
2018-09-10T04:25:30.303Z,0
2018-09-10T04:26:30.305Z,0
2018-09-10T04:27:30.346Z,0
2018-09-10T04:28:30.346Z,0
2018-09-10T04:29:30.137Z,0
2018-09-10T04:30:30.245Z,0
2018-09-10T04:31:51.397Z,0
2018-09-10T04:32:51.215Z,0
2018-09-10T04:33:52.584Z,0
2018-09-10T04:35:54.829Z,0
2018-09-10T04:36:55.242Z,0
2018-09-10T04:37:55.508Z,0
2018-09-10T04:39:16.093Z,0
2018-09-10T04:40:16.965Z,0
2018-09-10T04:41:17.295Z,0
2018-09-10T04:42:37.339Z,0
2018-09-10T04:43:37.639Z,0
2018-09-10T04:44:59.170Z,0
2018-09-10T04:45:59.320Z,0
2018-09-10T04:46:59.626Z,1
2018-09-10T04:47:58.985Z,1
2018-09-10T04:48:59.033Z,1
2018-09-10T04:49:59.373Z,1
2018-09-10T04:50:59.231Z,1
2018-09-10T04:51:59.155Z,1
2018-09-10T04:52:59.147Z,1
2018-09-10T04:53:59.414Z,1
2018-09-10T04:54:58.784Z,1
2018-09-10T04:55:58.909Z,1
2018-09-10T04:56:59.140Z,1
2018-09-10T04:57:59.442Z,1
2018-09-10T04:58:58.979Z,1
2018-09-10T04:59:59.017Z,1
2018-09-10T05:00:59.128Z,2
2018-09-10T05:02:20.488Z,2
2018-09-10T05:03:21.113Z,2
2018-09-10T05:04:21.363Z,2
2018-09-10T05:05:20.544Z,2
2018-09-10T05:06:20.848Z,2
2018-09-10T05:07:21.059Z,2
2018-09-10T05:08:21.135Z,3
2018-09-10T05:09:21.361Z,3
2018-09-10T05:10:21.640Z,3
2018-09-10T05:11:20.980Z,3
2018-09-10T05:12:21.148Z,3
2018-09-10T05:13:21.404Z,4
2018-09-10T05:14:20.659Z,4
2018-09-10T05:15:20.757Z,5
2018-09-10T05:16:20.834Z,5
2018-09-10T05:17:21.238Z,6
2018-09-10T05:18:21.340Z,7
2018-09-10T05:19:20.712Z,7
2018-09-10T05:20:21.033Z,8
2018-09-10T05:21:21.179Z,8
2018-09-10T05:22:41.734Z,8
2018-09-10T05:24:03.049Z,9
2018-09-10T05:25:03.353Z,10
2018-09-10T05:26:03.806Z,10
2018-09-10T05:27:03.236Z,11
2018-09-10T05:28:03.745Z,11
2018-09-10T05:29:03.278Z,11
2018-09-10T05:30:03.594Z,12
2018-09-10T05:31:24.833Z,12
2018-09-10T05:32:24.773Z,14
2018-09-10T05:33:24.858Z,15
2018-09-10T05:34:25.139Z,16
2018-09-10T05:35:25.416Z,18
2018-09-10T05:36:25.670Z,18
2018-09-10T05:37:24.939Z,18
2018-09-10T05:38:24.947Z,18
2018-09-10T05:39:25.142Z,18
2018-09-10T05:40:25.347Z,18
2018-09-10T05:41:25.620Z,18
2018-09-10T05:42:24.849Z,18
2018-09-10T05:43:25.225Z,18
2018-09-10T05:44:46.227Z,19
2018-09-10T05:46:28.085Z,20
2018-09-10T05:47:28.242Z,20
2018-09-10T05:48:28.617Z,20
2018-09-10T05:49:28.830Z,19
2018-09-10T05:50:29.110Z,19
2018-09-10T05:51:28.333Z,19
2018-09-10T05:52:28.517Z,18
2018-09-10T05:53:28.595Z,18
2018-09-10T05:54:30.696Z,17
2018-09-10T05:55:29.222Z,17
2018-09-10T05:56:28.709Z,17
2018-09-10T05:57:28.801Z,17
2018-09-10T05:58:29.423Z,18
2018-09-10T05:59:28.614Z,19
2018-09-10T06:00:29.037Z,20
2018-09-10T06:01:29.380Z,21
2018-09-10T06:02:28.950Z,21
2018-09-10T06:03:28.282Z,20
2018-09-10T06:04:28.475Z,20
2018-09-10T06:05:49.608Z,20
2018-09-10T06:07:10.909Z,21
2018-09-10T06:08:33.492Z,22
2018-09-10T06:09:54.990Z,24
2018-09-10T06:10:55.414Z,25
2018-09-10T06:11:55.574Z,26
2018-09-10T06:13:27.977Z,28
2018-09-10T06:14:29.224Z,29
2018-09-10T06:15:28.945Z,30
2018-09-10T06:16:29.035Z,31
2018-09-10T06:17:28.200Z,31
2018-09-10T06:18:28.875Z,32
2018-09-10T06:19:28.314Z,34
2018-09-10T06:20:28.802Z,37
2018-09-10T06:21:29.031Z,41
2018-09-10T06:22:28.189Z,44
2018-09-10T06:23:28.681Z,47
2018-09-10T06:24:29.088Z,52
2018-09-10T06:25:28.519Z,58
2018-09-10T06:26:28.911Z,62
2018-09-10T06:27:27.958Z,63
2018-09-10T06:28:28.407Z,63
2018-09-10T06:29:28.615Z,62
2018-09-10T06:30:28.993Z,60
2018-09-10T06:31:28.331Z,59
2018-09-10T06:32:28.819Z,58
2018-09-10T06:33:27.928Z,60
2018-09-10T06:34:28.259Z,62
2018-09-10T06:35:28.327Z,64
2018-09-10T06:36:49.809Z,71
2018-09-10T06:37:50.038Z,74
2018-09-10T06:39:12.327Z,74
2018-09-10T06:40:12.683Z,73
2018-09-10T06:41:13.939Z,69
2018-09-10T06:42:12.474Z,68
2018-09-10T06:43:13.048Z,66
2018-09-10T06:44:12.262Z,65
2018-09-10T06:45:12.408Z,64
2018-09-10T06:46:13.038Z,63
2018-09-10T06:47:12.741Z,66
2018-09-10T06:48:11.905Z,70
2018-09-10T06:49:12.174Z,75
2018-09-10T06:50:13.680Z,79
2018-09-10T06:51:13.551Z,82
2018-09-10T06:52:12.838Z,83
2018-09-10T06:53:33.444Z,84
2018-09-10T06:54:56.794Z,85
2018-09-10T06:55:57.049Z,83
2018-09-10T06:56:55.513Z,81
2018-09-10T06:57:54.913Z,79
2018-09-10T06:58:55.256Z,75
2018-09-10T06:59:55.958Z,68
2018-09-10T07:00:55.213Z,63
2018-09-10T07:01:55.400Z,62
2018-09-10T07:02:54.769Z,65
2018-09-10T07:03:55.163Z,69
2018-09-10T07:04:55.466Z,73
2018-09-10T07:05:54.801Z,77
2018-09-10T07:06:55.156Z,80
2018-09-10T07:07:55.509Z,80
2018-09-10T07:09:16.041Z,73
2018-09-10T07:10:16.342Z,66
2018-09-10T07:11:16.478Z,64
2018-09-10T07:12:16.799Z,67
2018-09-10T07:13:15.993Z,72
2018-09-10T07:14:16.535Z,78
2018-09-10T07:15:15.939Z,85
2018-09-10T07:16:16.261Z,91
2018-09-10T07:17:16.672Z,95
2018-09-10T07:18:16.277Z,96
2018-09-10T07:19:17.026Z,96
2018-09-10T07:20:37.634Z,96
2018-09-10T07:21:37.901Z,98
2018-09-10T07:22:41.946Z,103
2018-09-10T07:23:38.204Z,107
2018-09-10T07:24:38.748Z,112
2018-09-10T07:25:37.935Z,117
2018-09-10T07:26:38.261Z,119
2018-09-10T07:27:37.491Z,120
2018-09-10T07:28:38.026Z,122
2018-09-10T07:29:38.463Z,127
2018-09-10T07:30:37.586Z,135
2018-09-10T07:31:38.084Z,140
2018-09-10T07:32:39.299Z,145
2018-09-10T07:33:38.882Z,152
2018-09-10T07:34:40.179Z,159
2018-09-10T07:35:37.998Z,185
2018-09-10T07:37:00.475Z,158
2018-09-10T07:37:59.611Z,170
2018-09-10T07:38:59.879Z,253
2018-09-10T07:39:59.467Z,198
2018-09-10T07:40:59.856Z,211
2018-09-10T07:42:00.457Z,250
2018-09-10T07:42:59.864Z,213
2018-09-10T07:44:21.856Z,223
2018-09-10T07:45:22.163Z,294
2018-09-10T07:46:21.722Z,311
2018-09-10T07:47:22.243Z,259
2018-09-10T07:48:21.767Z,206
2018-09-10T07:49:23.594Z,165
2018-09-10T07:50:21.835Z,158
2018-09-10T07:51:22.417Z,163
2018-09-10T07:52:21.854Z,183
2018-09-10T07:53:23.649Z,180
2018-09-10T07:54:22.239Z,145
2018-09-10T07:55:44.601Z,129
2018-09-10T07:56:44.963Z,118
2018-09-10T07:57:46.221Z,113
2018-09-10T07:58:45.897Z,106
2018-09-10T07:59:45.554Z,98
2018-09-10T08:00:44.966Z,92
2018-09-10T08:02:06.203Z,87
2018-09-10T08:03:08.124Z,85
2018-09-10T08:04:06.686Z,83
2018-09-10T08:05:06.924Z,83
2018-09-10T08:06:06.204Z,84
2018-09-10T08:07:06.213Z,85
2018-09-10T08:08:06.443Z,87
2018-09-10T08:09:06.504Z,90
2018-09-10T08:10:06.921Z,94
2018-09-10T08:11:05.981Z,99
2018-09-10T08:12:06.335Z,101
2018-09-10T08:13:06.628Z,103
2018-09-10T08:14:06.985Z,103
2018-09-10T08:15:06.881Z,103
2018-09-10T08:16:06.251Z,104
2018-09-10T08:17:06.587Z,106
2018-09-10T08:18:06.974Z,111
2018-09-10T08:19:06.354Z,114
2018-09-10T08:20:06.653Z,116
2018-09-10T08:21:28.078Z,122
2018-09-10T08:22:28.417Z,126
2018-09-10T08:23:28.689Z,128
2018-09-10T08:24:29.254Z,126
2018-09-10T08:25:28.676Z,123
2018-09-10T08:26:50.739Z,123
2018-09-10T08:27:51.109Z,125
2018-09-10T08:28:50.536Z,127
2018-09-10T08:29:50.961Z,129
2018-09-10T08:30:51.169Z,132
2018-09-10T08:31:51.114Z,139
2018-09-10T08:32:51.295Z,147
2018-09-10T08:33:50.865Z,155
2018-09-10T08:34:51.272Z,161
2018-09-10T08:36:12.050Z,160
2018-09-10T08:37:33.619Z,157
2018-09-10T08:38:33.877Z,153
2018-09-10T08:39:55.509Z,147
2018-09-10T08:40:55.964Z,143
2018-09-10T08:41:56.308Z,141
2018-09-10T08:43:16.709Z,144
2018-09-10T08:44:17.082Z,150
2018-09-10T08:45:17.464Z,157
2018-09-10T08:46:58.965Z,170
2018-09-10T08:47:59.585Z,175
2018-09-10T08:48:59.016Z,179
2018-09-10T08:49:59.460Z,180
2018-09-10T08:50:58.869Z,180
2018-09-10T08:51:59.129Z,171
2018-09-10T08:52:59.482Z,163
2018-09-10T08:53:59.257Z,158
2018-09-10T08:55:00.451Z,153
2018-09-10T08:55:59.311Z,148
2018-09-10T08:57:20.063Z,140
2018-09-10T08:58:20.579Z,135
2018-09-10T08:59:19.784Z,129
2018-09-10T09:00:20.404Z,124
2018-09-10T09:01:20.638Z,120
2018-09-10T09:02:20.023Z,116
2018-09-10T09:03:20.539Z,116
2018-09-10T09:04:20.047Z,119
2018-09-10T09:05:20.182Z,121
2018-09-10T09:06:21.998Z,121
2018-09-10T09:07:20.373Z,120
2018-09-10T09:08:21.714Z,119
2018-09-10T09:09:20.615Z,117
2018-09-10T09:10:20.120Z,116
2018-09-10T09:11:41.537Z,116
2018-09-10T09:12:41.714Z,117
2018-09-10T09:13:41.890Z,119
2018-09-10T09:14:42.185Z,120
2018-09-10T09:15:42.439Z,120
2018-09-10T09:17:04.072Z,119
2018-09-10T09:18:03.261Z,117
2018-09-10T09:19:03.617Z,114
2018-09-10T09:20:03.978Z,110
2018-09-10T09:21:24.571Z,109
2018-09-10T09:22:25.180Z,108
2018-09-10T09:23:24.846Z,107
2018-09-10T09:24:26.070Z,105
2018-09-10T09:25:25.326Z,105
2018-09-10T09:26:24.940Z,107
2018-09-10T09:27:25.460Z,111
2018-09-10T09:28:24.781Z,117
2018-09-10T09:29:25.007Z,123
2018-09-10T09:30:46.400Z,129
2018-09-10T09:31:46.927Z,133
2018-09-10T09:33:08.168Z,138
2018-09-10T09:34:08.475Z,144
2018-09-10T09:35:30.653Z,153
2018-09-10T09:36:31.931Z,161
2018-09-10T09:37:31.187Z,170
2018-09-10T09:38:31.244Z,176
2018-09-10T09:39:31.837Z,177
2018-09-10T09:40:31.372Z,174
2018-09-10T09:41:52.818Z,161
2018-09-10T09:42:53.272Z,153
2018-09-10T09:43:53.539Z,151
2018-09-10T09:44:52.822Z,154
2018-09-10T09:46:14.788Z,168
2018-09-10T09:48:18.721Z,190
2018-09-10T09:49:19.146Z,190
2018-09-10T09:50:20.840Z,181
2018-09-10T09:52:01.422Z,164
2018-09-10T09:53:01.478Z,156
2018-09-10T09:54:02.079Z,150
2018-09-10T09:55:01.399Z,148
2018-09-10T09:56:01.778Z,150
2018-09-10T09:57:02.147Z,157
2018-09-10T09:58:01.581Z,167
2018-09-10T09:59:01.977Z,180
2018-09-10T10:00:02.405Z,195
2018-09-10T10:01:01.546Z,207
2018-09-10T10:02:24.409Z,220
2018-09-10T10:03:24.654Z,225
2018-09-10T10:04:24.990Z,231
2018-09-10T10:05:24.472Z,223
2018-09-10T10:06:45.847Z,202
2018-09-10T10:07:46.330Z,188
2018-09-10T10:08:46.665Z,177
2018-09-10T10:09:46.137Z,172
2018-09-10T10:10:46.429Z,175
2018-09-10T10:11:46.047Z,184
2018-09-10T10:12:46.680Z,196
2018-09-10T10:13:45.974Z,207
2018-09-10T10:15:07.629Z,222
2018-09-10T10:16:07.780Z,233
2018-09-10T10:17:08.217Z,237
2018-09-10T10:18:07.792Z,240
2018-09-10T10:19:08.838Z,237
2018-09-10T10:20:08.333Z,229
2018-09-10T10:21:29.602Z,207
2018-09-10T10:22:29.861Z,193
2018-09-10T10:23:30.207Z,179
2018-09-10T10:24:30.508Z,160
2018-09-10T10:25:50.872Z,134
2018-09-10T10:27:12.291Z,120
2018-09-10T10:28:34.650Z,123
2018-09-10T10:29:34.964Z,135
2018-09-10T10:30:35.287Z,149
2018-09-10T10:31:35.833Z,165
2018-09-10T10:33:20.076Z,194
2018-09-10T10:34:19.590Z,209
2018-09-10T10:35:19.900Z,218
2018-09-10T10:36:20.227Z,229
2018-09-10T10:37:19.797Z,237
2018-09-10T10:38:19.996Z,243
2018-09-10T10:39:19.632Z,243
2018-09-10T10:40:20.910Z,232
2018-09-10T10:41:21.146Z,222
2018-09-10T10:42:19.559Z,218
2018-09-10T10:43:20.010Z,217
2018-09-10T10:44:40.837Z,220
2018-09-10T10:45:41.124Z,218
2018-09-10T10:46:41.556Z,220
2018-09-10T10:47:40.957Z,218
2018-09-10T10:48:41.436Z,205
2018-09-10T10:49:40.553Z,196
2018-09-10T10:50:40.867Z,191
2018-09-10T10:51:41.009Z,193
2018-09-10T10:53:02.936Z,202
2018-09-10T10:54:03.358Z,210
2018-09-10T10:55:25.088Z,215
2018-09-10T10:56:25.674Z,216
2018-09-10T10:57:46.152Z,210
2018-09-10T10:59:28.803Z,202
2018-09-10T11:00:29.409Z,199
2018-09-10T11:01:28.630Z,199
2018-09-10T11:02:29.088Z,195
2018-09-10T11:03:29.445Z,192
2018-09-10T11:04:28.818Z,191
2018-09-10T11:05:29.210Z,190
2018-09-10T11:06:29.032Z,189
2018-09-10T11:07:29.465Z,188
2018-09-10T11:08:28.974Z,185
2018-09-10T11:09:29.522Z,182
2018-09-10T11:10:28.991Z,178
2018-09-10T11:11:50.643Z,179
2018-09-10T11:12:51.129Z,183
2018-09-10T11:13:50.525Z,186
2018-09-10T11:14:51.657Z,190
2018-09-10T11:15:51.621Z,188
2018-09-10T11:17:13.376Z,185
2018-09-10T11:18:13.799Z,182
2018-09-10T11:19:14.381Z,183
2018-09-10T11:20:56.158Z,203
2018-09-10T11:21:56.612Z,219
2018-09-10T11:22:56.171Z,234
2018-09-10T11:23:56.571Z,243
2018-09-10T11:24:56.110Z,254
2018-09-10T11:25:56.653Z,267
2018-09-10T11:26:56.219Z,270
2018-09-10T11:27:56.526Z,264
2018-09-10T11:28:55.981Z,256
2018-09-10T11:29:56.501Z,259
2018-09-10T11:30:57.223Z,264
2018-09-10T11:31:56.407Z,269
2018-09-10T11:32:56.764Z,266
2018-09-10T11:34:17.950Z,259
2018-09-10T11:35:18.870Z,255
2018-09-10T11:36:40.694Z,246
2018-09-10T11:37:41.228Z,239
2018-09-10T11:38:40.365Z,240
2018-09-10T11:39:41.801Z,247
2018-09-10T11:40:41.039Z,255
2018-09-10T11:41:41.523Z,268
2018-09-10T11:42:40.803Z,276
2018-09-10T11:43:41.110Z,276
2018-09-10T11:45:02.543Z,274
2018-09-10T11:46:02.969Z,269
2018-09-10T11:47:03.354Z,263
2018-09-10T11:48:02.842Z,250
2018-09-10T11:49:03.353Z,237
2018-09-10T11:50:02.646Z,221
2018-09-10T11:51:03.027Z,208
2018-09-10T11:52:02.412Z,202
2018-09-10T11:53:02.792Z,204
2018-09-10T11:54:04.120Z,209
2018-09-10T11:55:24.540Z,214
2018-09-10T11:56:24.838Z,217
2018-09-10T11:57:25.340Z,219
2018-09-10T11:58:24.607Z,218
2018-09-10T11:59:25.016Z,212
2018-09-10T12:00:45.453Z,218
2018-09-10T12:02:07.163Z,224
2018-09-10T12:03:07.558Z,210
2018-09-10T12:04:07.598Z,191
2018-09-10T12:05:09.401Z,178
2018-09-10T12:06:28.958Z,174
2018-09-10T12:07:31.259Z,176
2018-09-10T12:08:29.605Z,178
2018-09-10T12:09:30.301Z,177
2018-09-10T12:10:30.322Z,173
2018-09-10T12:11:29.875Z,168
2018-09-10T12:12:29.357Z,164
2018-09-10T12:13:29.862Z,165
2018-09-10T12:14:51.533Z,168
2018-09-10T12:15:51.936Z,169
2018-09-10T12:17:16.848Z,165
2018-09-10T12:18:14.387Z,167
2018-09-10T12:19:13.975Z,171
2018-09-10T12:20:14.223Z,178
2018-09-10T12:21:14.960Z,183
2018-09-10T12:22:14.400Z,182
2018-09-10T12:23:14.810Z,177
2018-09-10T12:24:14.013Z,171
2018-09-10T12:25:14.582Z,168
2018-09-10T12:26:13.771Z,167
2018-09-10T12:27:14.290Z,167
2018-09-10T12:28:14.555Z,169
2018-09-10T12:29:13.981Z,175
2018-09-10T12:30:14.354Z,181
2018-09-10T12:31:14.695Z,184
2018-09-10T12:32:14.115Z,183
2018-09-10T12:33:15.252Z,178
2018-09-10T12:34:15.077Z,168
2018-09-10T12:35:35.758Z,156
2018-09-10T12:36:57.403Z,169
2018-09-10T12:37:57.916Z,168
2018-09-10T12:38:57.547Z,161
2018-09-10T12:39:58.020Z,161
2018-09-10T12:40:57.660Z,159
2018-09-10T12:41:57.918Z,139
2018-09-10T12:42:57.405Z,118
2018-09-10T12:43:57.748Z,102
2018-09-10T12:44:59.057Z,99
2018-09-10T12:45:58.155Z,111
2018-09-10T12:46:57.686Z,139
2018-09-10T12:47:57.986Z,156
2018-09-10T12:49:18.643Z,156
2018-09-10T12:50:19.029Z,145
2018-09-10T12:51:19.530Z,140
2018-09-10T12:53:01.206Z,150
2018-09-10T12:54:01.597Z,147
2018-09-10T12:55:01.236Z,142
2018-09-10T12:56:01.965Z,140
2018-09-10T12:57:01.643Z,149
2018-09-10T12:58:01.916Z,189
2018-09-10T12:59:01.457Z,246
2018-09-10T13:00:01.894Z,260
2018-09-10T13:01:01.296Z,245
2018-09-10T13:02:01.853Z,229
2018-09-10T13:03:01.186Z,211
2018-09-10T13:04:01.573Z,213
2018-09-10T13:05:02.647Z,217
2018-09-10T13:06:01.193Z,219
2018-09-10T13:07:23.461Z,226
2018-09-10T13:08:23.985Z,232
2018-09-10T13:09:23.332Z,236
2018-09-10T13:10:24.059Z,236
2018-09-10T13:11:24.020Z,241
2018-09-10T13:12:24.244Z,245
2018-09-10T13:13:24.054Z,246
2018-09-10T13:14:23.400Z,239
2018-09-10T13:15:23.970Z,223
2018-09-10T13:16:23.445Z,215
2018-09-10T13:17:24.546Z,214
2018-09-10T13:18:23.916Z,211
2018-09-10T13:19:23.039Z,207
2018-09-10T13:20:23.209Z,208
2018-09-10T13:21:23.703Z,214
2018-09-10T13:22:24.842Z,216
2018-09-10T13:23:23.151Z,220
2018-09-10T13:24:23.746Z,217
2018-09-10T13:25:24.110Z,216
2018-09-10T13:26:44.961Z,213
2018-09-10T13:27:45.393Z,208
2018-09-10T13:28:44.886Z,197
2018-09-10T13:29:46.600Z,185
2018-09-10T13:31:06.480Z,179
2018-09-10T13:32:07.762Z,180
2018-09-10T13:33:07.098Z,182
2018-09-10T13:34:49.250Z,179
2018-09-10T13:35:49.667Z,170
2018-09-10T13:36:49.053Z,159
2018-09-10T13:37:49.397Z,151
2018-09-10T13:38:49.773Z,145
2018-09-10T13:39:49.055Z,143
2018-09-10T13:41:32.870Z,142
2018-09-10T13:42:33.404Z,137
2018-09-10T13:43:32.923Z,130
2018-09-10T13:44:33.502Z,123
2018-09-10T13:45:33.425Z,118
2018-09-10T13:46:33.533Z,113
2018-09-10T13:47:32.860Z,107
2018-09-10T13:48:34.094Z,101
2018-09-10T13:49:34.749Z,94
2018-09-10T13:50:33.246Z,87
2018-09-10T13:51:32.609Z,84
2018-09-10T13:52:33.067Z,85
2018-09-10T13:53:33.698Z,88
2018-09-10T13:54:32.991Z,94
2018-09-10T13:55:33.321Z,97
2018-09-10T13:57:02.695Z,94
2018-09-10T13:58:03.163Z,93
2018-09-10T13:59:24.500Z,93
2018-09-10T14:00:24.984Z,94
2018-09-10T14:01:25.719Z,95
2018-09-10T14:02:25.521Z,95
2018-09-10T14:03:24.864Z,95
2018-09-10T14:04:25.973Z,94
2018-09-10T14:05:25.422Z,93
2018-09-10T14:06:24.951Z,94
2018-09-10T14:07:25.547Z,93
2018-09-10T14:08:24.997Z,90
2018-09-10T14:09:25.298Z,88
2018-09-10T14:10:24.880Z,87
2018-09-10T14:11:26.845Z,88
2018-09-10T14:12:25.573Z,89
2018-09-10T14:13:24.787Z,88
2018-09-10T14:14:25.636Z,87
2018-09-10T14:15:25.059Z,87
2018-09-10T14:16:24.499Z,85
2018-09-10T14:17:24.992Z,80
2018-09-10T14:18:24.602Z,75
2018-09-10T14:19:25.071Z,71
2018-09-10T14:20:24.721Z,71
2018-09-10T14:21:46.251Z,74
2018-09-10T14:22:46.636Z,76
2018-09-10T14:23:48.413Z,76
2018-09-10T14:25:07.649Z,76
2018-09-10T14:26:08.308Z,77
2018-09-10T14:27:08.689Z,74
2018-09-10T14:28:07.988Z,67
2018-09-10T14:29:08.923Z,62
2018-09-10T14:30:08.454Z,60
2018-09-10T14:31:07.883Z,62
2018-09-10T14:32:08.292Z,66
2018-09-10T14:33:30.899Z,70
2018-09-10T14:34:31.271Z,69
2018-09-10T14:35:32.825Z,65
2018-09-10T14:36:31.294Z,60
2018-09-10T14:37:31.569Z,53
2018-09-10T14:38:31.011Z,49
2018-09-10T14:39:31.948Z,52
2018-09-10T14:40:31.081Z,61
2018-09-10T14:41:31.567Z,72
2018-09-10T14:42:31.035Z,79
2018-09-10T14:43:31.321Z,85
2018-09-10T14:44:32.401Z,91
2018-09-10T14:45:56.245Z,96
2018-09-10T14:46:55.374Z,96
2018-09-10T14:48:37.517Z,95
2018-09-10T14:49:37.894Z,93
2018-09-10T14:50:38.443Z,92
2018-09-10T14:51:38.432Z,91
2018-09-10T14:52:38.312Z,91
2018-09-10T14:53:38.590Z,91
2018-09-10T14:54:38.464Z,93
2018-09-10T14:55:38.595Z,95
2018-09-10T14:56:37.952Z,97
2018-09-10T14:57:59.564Z,100
2018-09-10T14:59:00.499Z,102
2018-09-10T14:59:59.952Z,102
2018-09-10T15:01:00.585Z,103
2018-09-10T15:01:59.895Z,106
2018-09-10T15:02:59.571Z,108
2018-09-10T15:04:00.290Z,109
2018-09-10T15:05:20.874Z,108